<?xml version="1.0" encoding="UTF-8" standalone="no" ?>
<gpx xmlns="http://www.topografix.com/GPX/1/1" xmlns:xsi="http://www.w3.org/2001/XMLSchema-instance" xsi:schemaLocation="http://www.topografix.com/GPX/1/1 http://www.topografix.com/GPX/1/1/gpx.xsd" version="1.1" creator="VisuGPX - https://www.visugpx.com">
  <metadata>
    <name>Cap camara. Depuis la plage de pampelone, en boucle</name>
    <desc><![CDATA[Cap camara. Depuis la plage de pampelone, en boucle]]></desc>
  </metadata>
  <trk>
    <name><![CDATA[2016-05-04 11:08]]></name>
    <desc><![CDATA[<p>Temps de départ: 05/04/2016 11:08</p><p>Temps d'arrivée: 05/04/2016 17:04</p><p>Distance: 11,8 km (05:56)</p><p>Temps déplacement: 03:06</p><p>Vitesse moyenne: 2 km/h</p><p>Vitesse moyenne mouvement: 3,8 km/h</p><p>Vitess Max.: 7,2km/h</p><p>Altitude minimale: 41 m</p><p>Altitude maximale: 177 m</p><p>Vitesse d'élévation: 124,4 m/h</p><p>Vitesse de descente: -125,8 m/h</p><p>Gain Altitude: 325 m</p><p>Perte Altitude: -330 m</p><p>Temps d'élévation: 02:37</p><p>Temps de descente: 02:37</p><hr align="center" width="480" style="height: 2px; width: 517px"/>]]></desc>
    <trkseg>
      <trkpt lat="43.21112" lon="6.66426">
        <ele>46.63</ele>
        <time>2016-05-04T09:08:06Z</time>
      </trkpt>
      <trkpt lat="43.21116" lon="6.66451">
        <ele>47.34</ele>
        <time>2016-05-04T09:09:29Z</time>
      </trkpt>
      <trkpt lat="43.21107" lon="6.66473">
        <ele>47.98</ele>
        <time>2016-05-04T09:10:35Z</time>
      </trkpt>
      <trkpt lat="43.21097" lon="6.66493">
        <ele>48.62</ele>
        <time>2016-05-04T09:11:01Z</time>
      </trkpt>
      <trkpt lat="43.21086" lon="6.66513">
        <ele>48.63</ele>
        <time>2016-05-04T09:11:19Z</time>
      </trkpt>
      <trkpt lat="43.21077" lon="6.66534">
        <ele>48.03</ele>
        <time>2016-05-04T09:11:41Z</time>
      </trkpt>
      <trkpt lat="43.21071" lon="6.66558">
        <ele>48.27</ele>
        <time>2016-05-04T09:11:56Z</time>
      </trkpt>
      <trkpt lat="43.21063" lon="6.66582">
        <ele>47.6</ele>
        <time>2016-05-04T09:12:19Z</time>
      </trkpt>
      <trkpt lat="43.21063" lon="6.66607">
        <ele>48.25</ele>
        <time>2016-05-04T09:13:04Z</time>
      </trkpt>
      <trkpt lat="43.21069" lon="6.6663">
        <ele>50.86</ele>
        <time>2016-05-04T09:14:19Z</time>
      </trkpt>
      <trkpt lat="43.21051" lon="6.66636">
        <ele>48.14</ele>
        <time>2016-05-04T09:16:51Z</time>
      </trkpt>
      <trkpt lat="43.21033" lon="6.66631">
        <ele>46.92</ele>
        <time>2016-05-04T09:17:16Z</time>
      </trkpt>
      <trkpt lat="43.21018" lon="6.66645">
        <ele>47.18</ele>
        <time>2016-05-04T09:17:42Z</time>
      </trkpt>
      <trkpt lat="43.21008" lon="6.66665">
        <ele>49.3</ele>
        <time>2016-05-04T09:18:11Z</time>
      </trkpt>
      <trkpt lat="43.21008" lon="6.66691">
        <ele>51.38</ele>
        <time>2016-05-04T09:18:48Z</time>
      </trkpt>
      <trkpt lat="43.21011" lon="6.66715">
        <ele>51.78</ele>
        <time>2016-05-04T09:19:08Z</time>
      </trkpt>
      <trkpt lat="43.21002" lon="6.66737">
        <ele>52.08</ele>
        <time>2016-05-04T09:19:33Z</time>
      </trkpt>
      <trkpt lat="43.21011" lon="6.6676">
        <ele>52.3</ele>
        <time>2016-05-04T09:19:57Z</time>
      </trkpt>
      <trkpt lat="43.21021" lon="6.6678">
        <ele>52.71</ele>
        <time>2016-05-04T09:20:37Z</time>
      </trkpt>
      <trkpt lat="43.21011" lon="6.66803">
        <ele>52.74</ele>
        <time>2016-05-04T09:20:58Z</time>
      </trkpt>
      <trkpt lat="43.21013" lon="6.66828">
        <ele>52.75</ele>
        <time>2016-05-04T09:21:25Z</time>
      </trkpt>
      <trkpt lat="43.20999" lon="6.66844">
        <ele>52.59</ele>
        <time>2016-05-04T09:21:47Z</time>
      </trkpt>
      <trkpt lat="43.20984" lon="6.66861">
        <ele>52.8</ele>
        <time>2016-05-04T09:22:06Z</time>
      </trkpt>
      <trkpt lat="43.20969" lon="6.66877">
        <ele>52.64</ele>
        <time>2016-05-04T09:22:30Z</time>
      </trkpt>
      <trkpt lat="43.2096" lon="6.66898">
        <ele>53.72</ele>
        <time>2016-05-04T09:22:53Z</time>
      </trkpt>
      <trkpt lat="43.20947" lon="6.66916">
        <ele>53.03</ele>
        <time>2016-05-04T09:23:17Z</time>
      </trkpt>
      <trkpt lat="43.20929" lon="6.66912">
        <ele>51.56</ele>
        <time>2016-05-04T09:23:36Z</time>
      </trkpt>
      <trkpt lat="43.20919" lon="6.6689">
        <ele>50.9</ele>
        <time>2016-05-04T09:24:08Z</time>
      </trkpt>
      <trkpt lat="43.20919" lon="6.66865">
        <ele>48.86</ele>
        <time>2016-05-04T09:24:52Z</time>
      </trkpt>
      <trkpt lat="43.20914" lon="6.66841">
        <ele>48.29</ele>
        <time>2016-05-04T09:25:24Z</time>
      </trkpt>
      <trkpt lat="43.20907" lon="6.66817">
        <ele>45.99</ele>
        <time>2016-05-04T09:25:48Z</time>
      </trkpt>
      <trkpt lat="43.20893" lon="6.66802">
        <ele>45.57</ele>
        <time>2016-05-04T09:26:05Z</time>
      </trkpt>
      <trkpt lat="43.20877" lon="6.66789">
        <ele>44.57</ele>
        <time>2016-05-04T09:26:22Z</time>
      </trkpt>
      <trkpt lat="43.20859" lon="6.66781">
        <ele>44.17</ele>
        <time>2016-05-04T09:26:42Z</time>
      </trkpt>
      <trkpt lat="43.20842" lon="6.66771">
        <ele>43.79</ele>
        <time>2016-05-04T09:27:00Z</time>
      </trkpt>
      <trkpt lat="43.20825" lon="6.66763">
        <ele>44.5</ele>
        <time>2016-05-04T09:27:29Z</time>
      </trkpt>
      <trkpt lat="43.20808" lon="6.66774">
        <ele>45.07</ele>
        <time>2016-05-04T09:27:47Z</time>
      </trkpt>
      <trkpt lat="43.2079" lon="6.6678">
        <ele>45.47</ele>
        <time>2016-05-04T09:28:05Z</time>
      </trkpt>
      <trkpt lat="43.20776" lon="6.66795">
        <ele>45.62</ele>
        <time>2016-05-04T09:28:23Z</time>
      </trkpt>
      <trkpt lat="43.20759" lon="6.66806">
        <ele>45.95</ele>
        <time>2016-05-04T09:28:40Z</time>
      </trkpt>
      <trkpt lat="43.20746" lon="6.66824">
        <ele>47.28</ele>
        <time>2016-05-04T09:30:30Z</time>
      </trkpt>
      <trkpt lat="43.2073" lon="6.66837">
        <ele>47.2</ele>
        <time>2016-05-04T09:30:46Z</time>
      </trkpt>
      <trkpt lat="43.20714" lon="6.66851">
        <ele>47.51</ele>
        <time>2016-05-04T09:31:03Z</time>
      </trkpt>
      <trkpt lat="43.20699" lon="6.66864">
        <ele>47.89</ele>
        <time>2016-05-04T09:31:14Z</time>
      </trkpt>
      <trkpt lat="43.20684" lon="6.6688">
        <ele>48.08</ele>
        <time>2016-05-04T09:31:29Z</time>
      </trkpt>
      <trkpt lat="43.20669" lon="6.66896">
        <ele>48.16</ele>
        <time>2016-05-04T09:31:45Z</time>
      </trkpt>
      <trkpt lat="43.20654" lon="6.66911">
        <ele>48.3</ele>
        <time>2016-05-04T09:32:00Z</time>
      </trkpt>
      <trkpt lat="43.20637" lon="6.66919">
        <ele>48.18</ele>
        <time>2016-05-04T09:32:14Z</time>
      </trkpt>
      <trkpt lat="43.20619" lon="6.66925">
        <ele>47.77</ele>
        <time>2016-05-04T09:32:37Z</time>
      </trkpt>
      <trkpt lat="43.20609" lon="6.66946">
        <ele>47.87</ele>
        <time>2016-05-04T09:32:52Z</time>
      </trkpt>
      <trkpt lat="43.20594" lon="6.66962">
        <ele>48.65</ele>
        <time>2016-05-04T09:33:07Z</time>
      </trkpt>
      <trkpt lat="43.20585" lon="6.66984">
        <ele>48.75</ele>
        <time>2016-05-04T09:33:30Z</time>
      </trkpt>
      <trkpt lat="43.2057" lon="6.67">
        <ele>48.3</ele>
        <time>2016-05-04T09:33:53Z</time>
      </trkpt>
      <trkpt lat="43.20557" lon="6.67018">
        <ele>49.51</ele>
        <time>2016-05-04T09:34:17Z</time>
      </trkpt>
      <trkpt lat="43.20551" lon="6.67042">
        <ele>51.42</ele>
        <time>2016-05-04T09:34:39Z</time>
      </trkpt>
      <trkpt lat="43.20547" lon="6.67066">
        <ele>53.65</ele>
        <time>2016-05-04T09:35:00Z</time>
      </trkpt>
      <trkpt lat="43.2055" lon="6.67091">
        <ele>56.92</ele>
        <time>2016-05-04T09:35:27Z</time>
      </trkpt>
      <trkpt lat="43.20543" lon="6.67115">
        <ele>60.38</ele>
        <time>2016-05-04T09:36:14Z</time>
      </trkpt>
      <trkpt lat="43.20544" lon="6.6714">
        <ele>63.24</ele>
        <time>2016-05-04T09:36:39Z</time>
      </trkpt>
      <trkpt lat="43.20536" lon="6.67163">
        <ele>64.86</ele>
        <time>2016-05-04T09:37:14Z</time>
      </trkpt>
      <trkpt lat="43.20531" lon="6.67186">
        <ele>64.77</ele>
        <time>2016-05-04T09:37:45Z</time>
      </trkpt>
      <trkpt lat="43.2052" lon="6.67207">
        <ele>62.37</ele>
        <time>2016-05-04T09:38:18Z</time>
      </trkpt>
      <trkpt lat="43.20505" lon="6.6722">
        <ele>61.07</ele>
        <time>2016-05-04T09:38:49Z</time>
      </trkpt>
      <trkpt lat="43.20492" lon="6.67238">
        <ele>61.06</ele>
        <time>2016-05-04T09:39:11Z</time>
      </trkpt>
      <trkpt lat="43.20474" lon="6.67244">
        <ele>59.99</ele>
        <time>2016-05-04T09:39:42Z</time>
      </trkpt>
      <trkpt lat="43.20461" lon="6.67262">
        <ele>59.95</ele>
        <time>2016-05-04T09:40:38Z</time>
      </trkpt>
      <trkpt lat="43.20456" lon="6.67286">
        <ele>61.27</ele>
        <time>2016-05-04T09:40:59Z</time>
      </trkpt>
      <trkpt lat="43.20453" lon="6.67311">
        <ele>64.44</ele>
        <time>2016-05-04T09:41:39Z</time>
      </trkpt>
      <trkpt lat="43.2045" lon="6.67335">
        <ele>69.08</ele>
        <time>2016-05-04T09:42:32Z</time>
      </trkpt>
      <trkpt lat="43.20433" lon="6.67346">
        <ele>80.15</ele>
        <time>2016-05-04T09:45:31Z</time>
      </trkpt>
      <trkpt lat="43.20434" lon="6.67371">
        <ele>81.24</ele>
        <time>2016-05-04T09:45:59Z</time>
      </trkpt>
      <trkpt lat="43.20433" lon="6.67395">
        <ele>81.46</ele>
        <time>2016-05-04T09:46:23Z</time>
      </trkpt>
      <trkpt lat="43.20421" lon="6.67417">
        <ele>82.37</ele>
        <time>2016-05-04T09:46:53Z</time>
      </trkpt>
      <trkpt lat="43.20418" lon="6.67441">
        <ele>82.16</ele>
        <time>2016-05-04T09:47:13Z</time>
      </trkpt>
      <trkpt lat="43.20402" lon="6.67452">
        <ele>82.94</ele>
        <time>2016-05-04T09:47:43Z</time>
      </trkpt>
      <trkpt lat="43.20393" lon="6.67473">
        <ele>82.59</ele>
        <time>2016-05-04T09:48:14Z</time>
      </trkpt>
      <trkpt lat="43.20378" lon="6.67491">
        <ele>82.3</ele>
        <time>2016-05-04T09:48:29Z</time>
      </trkpt>
      <trkpt lat="43.20368" lon="6.67511">
        <ele>82.1</ele>
        <time>2016-05-04T09:48:46Z</time>
      </trkpt>
      <trkpt lat="43.2036" lon="6.67534">
        <ele>80.43</ele>
        <time>2016-05-04T09:49:05Z</time>
      </trkpt>
      <trkpt lat="43.2036" lon="6.6756">
        <ele>77.54</ele>
        <time>2016-05-04T09:49:30Z</time>
      </trkpt>
      <trkpt lat="43.20351" lon="6.67581">
        <ele>75.79</ele>
        <time>2016-05-04T09:49:48Z</time>
      </trkpt>
      <trkpt lat="43.20341" lon="6.67602">
        <ele>73.51</ele>
        <time>2016-05-04T09:50:07Z</time>
      </trkpt>
      <trkpt lat="43.20334" lon="6.67626">
        <ele>70.38</ele>
        <time>2016-05-04T09:50:41Z</time>
      </trkpt>
      <trkpt lat="43.20339" lon="6.6765">
        <ele>67.39</ele>
        <time>2016-05-04T09:51:07Z</time>
      </trkpt>
      <trkpt lat="43.20356" lon="6.67644">
        <ele>63.61</ele>
        <time>2016-05-04T09:52:36Z</time>
      </trkpt>
      <trkpt lat="43.20374" lon="6.67638">
        <ele>61.46</ele>
        <time>2016-05-04T09:53:33Z</time>
      </trkpt>
      <trkpt lat="43.20392" lon="6.67639">
        <ele>50.41</ele>
        <time>2016-05-04T09:54:33Z</time>
      </trkpt>
      <trkpt lat="43.20375" lon="6.67646">
        <ele>45.78</ele>
        <time>2016-05-04T09:57:49Z</time>
      </trkpt>
      <trkpt lat="43.20357" lon="6.67649">
        <ele>49.56</ele>
        <time>2016-05-04T09:58:20Z</time>
      </trkpt>
      <trkpt lat="43.20339" lon="6.67645">
        <ele>55.08</ele>
        <time>2016-05-04T09:58:56Z</time>
      </trkpt>
      <trkpt lat="43.20331" lon="6.67622">
        <ele>58.57</ele>
        <time>2016-05-04T09:59:23Z</time>
      </trkpt>
      <trkpt lat="43.20315" lon="6.67632">
        <ele>63.88</ele>
        <time>2016-05-04T10:00:01Z</time>
      </trkpt>
      <trkpt lat="43.20297" lon="6.67641">
        <ele>65.76</ele>
        <time>2016-05-04T10:00:17Z</time>
      </trkpt>
      <trkpt lat="43.20284" lon="6.67659">
        <ele>68.9</ele>
        <time>2016-05-04T10:00:44Z</time>
      </trkpt>
      <trkpt lat="43.20271" lon="6.67677">
        <ele>71.25</ele>
        <time>2016-05-04T10:01:11Z</time>
      </trkpt>
      <trkpt lat="43.20257" lon="6.67694">
        <ele>71.07</ele>
        <time>2016-05-04T10:01:33Z</time>
      </trkpt>
      <trkpt lat="43.20252" lon="6.67718">
        <ele>69.65</ele>
        <time>2016-05-04T10:02:06Z</time>
      </trkpt>
      <trkpt lat="43.2024" lon="6.67736">
        <ele>69.26</ele>
        <time>2016-05-04T10:02:28Z</time>
      </trkpt>
      <trkpt lat="43.20224" lon="6.6775">
        <ele>70.29</ele>
        <time>2016-05-04T10:02:48Z</time>
      </trkpt>
      <trkpt lat="43.20209" lon="6.67765">
        <ele>72.48</ele>
        <time>2016-05-04T10:03:14Z</time>
      </trkpt>
      <trkpt lat="43.20194" lon="6.6778">
        <ele>71.97</ele>
        <time>2016-05-04T10:03:40Z</time>
      </trkpt>
      <trkpt lat="43.20175" lon="6.67782">
        <ele>72.4</ele>
        <time>2016-05-04T10:04:01Z</time>
      </trkpt>
      <trkpt lat="43.20158" lon="6.67788">
        <ele>74</ele>
        <time>2016-05-04T10:04:27Z</time>
      </trkpt>
      <trkpt lat="43.2014" lon="6.67789">
        <ele>74.35</ele>
        <time>2016-05-04T10:04:51Z</time>
      </trkpt>
      <trkpt lat="43.20122" lon="6.67787">
        <ele>75.59</ele>
        <time>2016-05-04T10:05:14Z</time>
      </trkpt>
      <trkpt lat="43.20104" lon="6.67791">
        <ele>77.73</ele>
        <time>2016-05-04T10:06:02Z</time>
      </trkpt>
      <trkpt lat="43.20087" lon="6.67802">
        <ele>80.29</ele>
        <time>2016-05-04T10:06:28Z</time>
      </trkpt>
      <trkpt lat="43.20076" lon="6.67822">
        <ele>83.77</ele>
        <time>2016-05-04T10:07:08Z</time>
      </trkpt>
      <trkpt lat="43.20071" lon="6.67846">
        <ele>84.63</ele>
        <time>2016-05-04T10:07:23Z</time>
      </trkpt>
      <trkpt lat="43.20059" lon="6.67866">
        <ele>87.04</ele>
        <time>2016-05-04T10:07:50Z</time>
      </trkpt>
      <trkpt lat="43.20046" lon="6.67883">
        <ele>90.84</ele>
        <time>2016-05-04T10:08:19Z</time>
      </trkpt>
      <trkpt lat="43.20043" lon="6.67858">
        <ele>93.61</ele>
        <time>2016-05-04T10:09:33Z</time>
      </trkpt>
      <trkpt lat="43.20045" lon="6.67833">
        <ele>94.53</ele>
        <time>2016-05-04T10:09:55Z</time>
      </trkpt>
      <trkpt lat="43.20048" lon="6.67808">
        <ele>95.17</ele>
        <time>2016-05-04T10:10:19Z</time>
      </trkpt>
      <trkpt lat="43.20054" lon="6.67785">
        <ele>99.19</ele>
        <time>2016-05-04T10:11:03Z</time>
      </trkpt>
      <trkpt lat="43.20062" lon="6.67762">
        <ele>103.07</ele>
        <time>2016-05-04T10:11:27Z</time>
      </trkpt>
      <trkpt lat="43.20074" lon="6.67743">
        <ele>107.48</ele>
        <time>2016-05-04T10:11:57Z</time>
      </trkpt>
      <trkpt lat="43.20087" lon="6.67724">
        <ele>112.04</ele>
        <time>2016-05-04T10:12:26Z</time>
      </trkpt>
      <trkpt lat="43.20085" lon="6.677">
        <ele>115.93</ele>
        <time>2016-05-04T10:12:53Z</time>
      </trkpt>
      <trkpt lat="43.20095" lon="6.67678">
        <ele>119.78</ele>
        <time>2016-05-04T10:13:17Z</time>
      </trkpt>
      <trkpt lat="43.20094" lon="6.67653">
        <ele>122.7</ele>
        <time>2016-05-04T10:13:36Z</time>
      </trkpt>
      <trkpt lat="43.20103" lon="6.67631">
        <ele>126.31</ele>
        <time>2016-05-04T10:14:00Z</time>
      </trkpt>
      <trkpt lat="43.20113" lon="6.6761">
        <ele>128.68</ele>
        <time>2016-05-04T10:14:18Z</time>
      </trkpt>
      <trkpt lat="43.20126" lon="6.67592">
        <ele>131.1</ele>
        <time>2016-05-04T10:14:41Z</time>
      </trkpt>
      <trkpt lat="43.20137" lon="6.67573">
        <ele>135.34</ele>
        <time>2016-05-04T10:15:03Z</time>
      </trkpt>
      <trkpt lat="43.20139" lon="6.67548">
        <ele>137.53</ele>
        <time>2016-05-04T10:15:24Z</time>
      </trkpt>
      <trkpt lat="43.20143" lon="6.67522">
        <ele>139.19</ele>
        <time>2016-05-04T10:15:43Z</time>
      </trkpt>
      <trkpt lat="43.20139" lon="6.67497">
        <ele>142.24</ele>
        <time>2016-05-04T10:16:07Z</time>
      </trkpt>
      <trkpt lat="43.20136" lon="6.67471">
        <ele>144.04</ele>
        <time>2016-05-04T10:16:25Z</time>
      </trkpt>
      <trkpt lat="43.20134" lon="6.67446">
        <ele>146.18</ele>
        <time>2016-05-04T10:16:42Z</time>
      </trkpt>
      <trkpt lat="43.20131" lon="6.67421">
        <ele>148.22</ele>
        <time>2016-05-04T10:17:00Z</time>
      </trkpt>
      <trkpt lat="43.20129" lon="6.67396">
        <ele>150.09</ele>
        <time>2016-05-04T10:17:16Z</time>
      </trkpt>
      <trkpt lat="43.20111" lon="6.67394">
        <ele>151.07</ele>
        <time>2016-05-04T10:17:50Z</time>
      </trkpt>
      <trkpt lat="43.20127" lon="6.67381">
        <ele>154.12</ele>
        <time>2016-05-04T10:18:28Z</time>
      </trkpt>
      <trkpt lat="43.20127" lon="6.67356">
        <ele>154.66</ele>
        <time>2016-05-04T10:18:45Z</time>
      </trkpt>
      <trkpt lat="43.20135" lon="6.67333">
        <ele>153.53</ele>
        <time>2016-05-04T10:19:04Z</time>
      </trkpt>
      <trkpt lat="43.20153" lon="6.67329">
        <ele>155.2</ele>
        <time>2016-05-04T10:20:23Z</time>
      </trkpt>
      <trkpt lat="43.20136" lon="6.67337">
        <ele>154.25</ele>
        <time>2016-05-04T10:22:53Z</time>
      </trkpt>
      <trkpt lat="43.20118" lon="6.67339">
        <ele>154.26</ele>
        <time>2016-05-04T10:23:12Z</time>
      </trkpt>
      <trkpt lat="43.20102" lon="6.67356">
        <ele>154.77</ele>
        <time>2016-05-04T10:23:29Z</time>
      </trkpt>
      <trkpt lat="43.20095" lon="6.67378">
        <ele>154.65</ele>
        <time>2016-05-04T10:23:52Z</time>
      </trkpt>
      <trkpt lat="43.20095" lon="6.67404">
        <ele>155.76</ele>
        <time>2016-05-04T10:24:39Z</time>
      </trkpt>
      <trkpt lat="43.20108" lon="6.67387">
        <ele>156.32</ele>
        <time>2016-05-04T10:25:55Z</time>
      </trkpt>
      <trkpt lat="43.20126" lon="6.67389">
        <ele>157.14</ele>
        <time>2016-05-04T10:26:41Z</time>
      </trkpt>
      <trkpt lat="43.20131" lon="6.67414">
        <ele>156.98</ele>
        <time>2016-05-04T10:26:57Z</time>
      </trkpt>
      <trkpt lat="43.20135" lon="6.67439">
        <ele>156.18</ele>
        <time>2016-05-04T10:27:17Z</time>
      </trkpt>
      <trkpt lat="43.20134" lon="6.67464">
        <ele>155.01</ele>
        <time>2016-05-04T10:27:32Z</time>
      </trkpt>
      <trkpt lat="43.20137" lon="6.6749">
        <ele>153.57</ele>
        <time>2016-05-04T10:27:52Z</time>
      </trkpt>
      <trkpt lat="43.20149" lon="6.67508">
        <ele>150.86</ele>
        <time>2016-05-04T10:28:14Z</time>
      </trkpt>
      <trkpt lat="43.2014" lon="6.6753">
        <ele>148.02</ele>
        <time>2016-05-04T10:28:32Z</time>
      </trkpt>
      <trkpt lat="43.20135" lon="6.67555">
        <ele>144.93</ele>
        <time>2016-05-04T10:28:50Z</time>
      </trkpt>
      <trkpt lat="43.20139" lon="6.6758">
        <ele>142.24</ele>
        <time>2016-05-04T10:29:10Z</time>
      </trkpt>
      <trkpt lat="43.20125" lon="6.67598">
        <ele>139.44</ele>
        <time>2016-05-04T10:29:30Z</time>
      </trkpt>
      <trkpt lat="43.20114" lon="6.67618">
        <ele>138.12</ele>
        <time>2016-05-04T10:29:50Z</time>
      </trkpt>
      <trkpt lat="43.20103" lon="6.6764">
        <ele>137.09</ele>
        <time>2016-05-04T10:30:09Z</time>
      </trkpt>
      <trkpt lat="43.20101" lon="6.67666">
        <ele>136.15</ele>
        <time>2016-05-04T10:30:29Z</time>
      </trkpt>
      <trkpt lat="43.2009" lon="6.67687">
        <ele>133.12</ele>
        <time>2016-05-04T10:30:51Z</time>
      </trkpt>
      <trkpt lat="43.20081" lon="6.67708">
        <ele>128.78</ele>
        <time>2016-05-04T10:31:15Z</time>
      </trkpt>
      <trkpt lat="43.20081" lon="6.67733">
        <ele>126.86</ele>
        <time>2016-05-04T10:31:39Z</time>
      </trkpt>
      <trkpt lat="43.20068" lon="6.67751">
        <ele>123.97</ele>
        <time>2016-05-04T10:32:05Z</time>
      </trkpt>
      <trkpt lat="43.20057" lon="6.67771">
        <ele>119.86</ele>
        <time>2016-05-04T10:32:32Z</time>
      </trkpt>
      <trkpt lat="43.20047" lon="6.67793">
        <ele>116.23</ele>
        <time>2016-05-04T10:32:56Z</time>
      </trkpt>
      <trkpt lat="43.20044" lon="6.67818">
        <ele>112.32</ele>
        <time>2016-05-04T10:33:23Z</time>
      </trkpt>
      <trkpt lat="43.20042" lon="6.67843">
        <ele>109.62</ele>
        <time>2016-05-04T10:33:47Z</time>
      </trkpt>
      <trkpt lat="43.20036" lon="6.67866">
        <ele>105.14</ele>
        <time>2016-05-04T10:34:12Z</time>
      </trkpt>
      <trkpt lat="43.20036" lon="6.67892">
        <ele>98.47</ele>
        <time>2016-05-04T10:34:41Z</time>
      </trkpt>
      <trkpt lat="43.20029" lon="6.67915">
        <ele>93.54</ele>
        <time>2016-05-04T10:35:22Z</time>
      </trkpt>
      <trkpt lat="43.20027" lon="6.67941">
        <ele>90.39</ele>
        <time>2016-05-04T10:35:45Z</time>
      </trkpt>
      <trkpt lat="43.20025" lon="6.67966">
        <ele>89.71</ele>
        <time>2016-05-04T10:36:04Z</time>
      </trkpt>
      <trkpt lat="43.20028" lon="6.67991">
        <ele>88.58</ele>
        <time>2016-05-04T10:36:28Z</time>
      </trkpt>
      <trkpt lat="43.20024" lon="6.68016">
        <ele>84.68</ele>
        <time>2016-05-04T10:37:11Z</time>
      </trkpt>
      <trkpt lat="43.20016" lon="6.68038">
        <ele>80.19</ele>
        <time>2016-05-04T10:37:47Z</time>
      </trkpt>
      <trkpt lat="43.20002" lon="6.68055">
        <ele>74.82</ele>
        <time>2016-05-04T10:38:19Z</time>
      </trkpt>
      <trkpt lat="43.19984" lon="6.68052">
        <ele>69.83</ele>
        <time>2016-05-04T10:39:15Z</time>
      </trkpt>
      <trkpt lat="43.1997" lon="6.68035">
        <ele>66.42</ele>
        <time>2016-05-04T10:39:41Z</time>
      </trkpt>
      <trkpt lat="43.19962" lon="6.68013">
        <ele>64.4</ele>
        <time>2016-05-04T10:40:05Z</time>
      </trkpt>
      <trkpt lat="43.19953" lon="6.6799">
        <ele>62.37</ele>
        <time>2016-05-04T10:40:23Z</time>
      </trkpt>
      <trkpt lat="43.19945" lon="6.67966">
        <ele>61.82</ele>
        <time>2016-05-04T10:40:43Z</time>
      </trkpt>
      <trkpt lat="43.1995" lon="6.67939">
        <ele>61.17</ele>
        <time>2016-05-04T10:41:07Z</time>
      </trkpt>
      <trkpt lat="43.19945" lon="6.67915">
        <ele>60.38</ele>
        <time>2016-05-04T10:41:23Z</time>
      </trkpt>
      <trkpt lat="43.19932" lon="6.67896">
        <ele>61.12</ele>
        <time>2016-05-04T10:41:43Z</time>
      </trkpt>
      <trkpt lat="43.19924" lon="6.67874">
        <ele>61.62</ele>
        <time>2016-05-04T10:42:02Z</time>
      </trkpt>
      <trkpt lat="43.19917" lon="6.6785">
        <ele>61.52</ele>
        <time>2016-05-04T10:42:25Z</time>
      </trkpt>
      <trkpt lat="43.199" lon="6.67841">
        <ele>63.12</ele>
        <time>2016-05-04T10:42:44Z</time>
      </trkpt>
      <trkpt lat="43.19889" lon="6.6782">
        <ele>62.49</ele>
        <time>2016-05-04T10:43:37Z</time>
      </trkpt>
      <trkpt lat="43.19872" lon="6.67818">
        <ele>61.34</ele>
        <time>2016-05-04T10:44:08Z</time>
      </trkpt>
      <trkpt lat="43.19857" lon="6.67803">
        <ele>59.18</ele>
        <time>2016-05-04T10:44:40Z</time>
      </trkpt>
      <trkpt lat="43.19846" lon="6.67823">
        <ele>54.11</ele>
        <time>2016-05-04T10:45:32Z</time>
      </trkpt>
      <trkpt lat="43.19852" lon="6.67799">
        <ele>47.97</ele>
        <time>2016-05-04T11:47:58Z</time>
      </trkpt>
      <trkpt lat="43.19858" lon="6.67776">
        <ele>48.54</ele>
        <time>2016-05-04T11:49:20Z</time>
      </trkpt>
      <trkpt lat="43.19846" lon="6.67758">
        <ele>48.91</ele>
        <time>2016-05-04T11:49:51Z</time>
      </trkpt>
      <trkpt lat="43.1984" lon="6.67734">
        <ele>49.04</ele>
        <time>2016-05-04T11:50:19Z</time>
      </trkpt>
      <trkpt lat="43.19823" lon="6.67724">
        <ele>49.07</ele>
        <time>2016-05-04T11:50:58Z</time>
      </trkpt>
      <trkpt lat="43.19815" lon="6.67702">
        <ele>49.59</ele>
        <time>2016-05-04T11:51:57Z</time>
      </trkpt>
      <trkpt lat="43.19799" lon="6.67689">
        <ele>49.3</ele>
        <time>2016-05-04T11:52:46Z</time>
      </trkpt>
      <trkpt lat="43.1978" lon="6.67688">
        <ele>49.25</ele>
        <time>2016-05-04T11:53:07Z</time>
      </trkpt>
      <trkpt lat="43.19762" lon="6.67694">
        <ele>49.37</ele>
        <time>2016-05-04T11:53:26Z</time>
      </trkpt>
      <trkpt lat="43.19744" lon="6.6769">
        <ele>49.39</ele>
        <time>2016-05-04T11:53:46Z</time>
      </trkpt>
      <trkpt lat="43.19725" lon="6.67692">
        <ele>49.79</ele>
        <time>2016-05-04T11:54:11Z</time>
      </trkpt>
      <trkpt lat="43.19709" lon="6.67681">
        <ele>50.04</ele>
        <time>2016-05-04T11:54:33Z</time>
      </trkpt>
      <trkpt lat="43.19696" lon="6.67663">
        <ele>50.26</ele>
        <time>2016-05-04T11:54:50Z</time>
      </trkpt>
      <trkpt lat="43.19687" lon="6.67641">
        <ele>50.11</ele>
        <time>2016-05-04T11:55:07Z</time>
      </trkpt>
      <trkpt lat="43.19672" lon="6.67628">
        <ele>50.19</ele>
        <time>2016-05-04T11:55:29Z</time>
      </trkpt>
      <trkpt lat="43.19659" lon="6.6761">
        <ele>51.6</ele>
        <time>2016-05-04T11:56:02Z</time>
      </trkpt>
      <trkpt lat="43.19649" lon="6.67589">
        <ele>52.71</ele>
        <time>2016-05-04T11:56:35Z</time>
      </trkpt>
      <trkpt lat="43.19633" lon="6.67575">
        <ele>53.44</ele>
        <time>2016-05-04T11:56:57Z</time>
      </trkpt>
      <trkpt lat="43.19615" lon="6.67569">
        <ele>54.13</ele>
        <time>2016-05-04T11:57:26Z</time>
      </trkpt>
      <trkpt lat="43.19613" lon="6.67544">
        <ele>54.96</ele>
        <time>2016-05-04T11:58:01Z</time>
      </trkpt>
      <trkpt lat="43.1962" lon="6.67519">
        <ele>55.35</ele>
        <time>2016-05-04T11:58:39Z</time>
      </trkpt>
      <trkpt lat="43.19628" lon="6.67497">
        <ele>55.42</ele>
        <time>2016-05-04T11:58:59Z</time>
      </trkpt>
      <trkpt lat="43.1964" lon="6.67477">
        <ele>55.62</ele>
        <time>2016-05-04T11:59:31Z</time>
      </trkpt>
      <trkpt lat="43.19656" lon="6.67464">
        <ele>56.04</ele>
        <time>2016-05-04T11:59:51Z</time>
      </trkpt>
      <trkpt lat="43.19671" lon="6.6745">
        <ele>56.31</ele>
        <time>2016-05-04T12:00:08Z</time>
      </trkpt>
      <trkpt lat="43.19687" lon="6.67438">
        <ele>56.36</ele>
        <time>2016-05-04T12:00:33Z</time>
      </trkpt>
      <trkpt lat="43.19698" lon="6.67417">
        <ele>56.57</ele>
        <time>2016-05-04T12:00:56Z</time>
      </trkpt>
      <trkpt lat="43.19701" lon="6.67393">
        <ele>56.6</ele>
        <time>2016-05-04T12:01:18Z</time>
      </trkpt>
      <trkpt lat="43.19705" lon="6.67369">
        <ele>56.38</ele>
        <time>2016-05-04T12:01:42Z</time>
      </trkpt>
      <trkpt lat="43.19706" lon="6.67344">
        <ele>56.27</ele>
        <time>2016-05-04T12:02:16Z</time>
      </trkpt>
      <trkpt lat="43.19715" lon="6.67322">
        <ele>56.28</ele>
        <time>2016-05-04T12:02:46Z</time>
      </trkpt>
      <trkpt lat="43.19715" lon="6.67296">
        <ele>56.05</ele>
        <time>2016-05-04T12:03:08Z</time>
      </trkpt>
      <trkpt lat="43.19711" lon="6.67271">
        <ele>55.78</ele>
        <time>2016-05-04T12:03:38Z</time>
      </trkpt>
      <trkpt lat="43.19705" lon="6.67248">
        <ele>55.84</ele>
        <time>2016-05-04T12:04:03Z</time>
      </trkpt>
      <trkpt lat="43.19698" lon="6.67225">
        <ele>55.97</ele>
        <time>2016-05-04T12:04:30Z</time>
      </trkpt>
      <trkpt lat="43.19694" lon="6.672">
        <ele>56.14</ele>
        <time>2016-05-04T12:04:52Z</time>
      </trkpt>
      <trkpt lat="43.19691" lon="6.67175">
        <ele>56.24</ele>
        <time>2016-05-04T12:05:16Z</time>
      </trkpt>
      <trkpt lat="43.19692" lon="6.6715">
        <ele>56.4</ele>
        <time>2016-05-04T12:05:41Z</time>
      </trkpt>
      <trkpt lat="43.19678" lon="6.67134">
        <ele>56.97</ele>
        <time>2016-05-04T12:06:01Z</time>
      </trkpt>
      <trkpt lat="43.19672" lon="6.6711">
        <ele>59.32</ele>
        <time>2016-05-04T12:06:17Z</time>
      </trkpt>
      <trkpt lat="43.19673" lon="6.67084">
        <ele>61.04</ele>
        <time>2016-05-04T12:06:33Z</time>
      </trkpt>
      <trkpt lat="43.19687" lon="6.67069">
        <ele>62.23</ele>
        <time>2016-05-04T12:07:13Z</time>
      </trkpt>
      <trkpt lat="43.19688" lon="6.67042">
        <ele>63.96</ele>
        <time>2016-05-04T12:07:29Z</time>
      </trkpt>
      <trkpt lat="43.1968" lon="6.6702">
        <ele>62.3</ele>
        <time>2016-05-04T12:07:51Z</time>
      </trkpt>
      <trkpt lat="43.19664" lon="6.67008">
        <ele>55.09</ele>
        <time>2016-05-04T12:08:30Z</time>
      </trkpt>
      <trkpt lat="43.19658" lon="6.66983">
        <ele>53.19</ele>
        <time>2016-05-04T12:08:47Z</time>
      </trkpt>
      <trkpt lat="43.19643" lon="6.66968">
        <ele>53.74</ele>
        <time>2016-05-04T12:09:06Z</time>
      </trkpt>
      <trkpt lat="43.19625" lon="6.66964">
        <ele>53.69</ele>
        <time>2016-05-04T12:09:21Z</time>
      </trkpt>
      <trkpt lat="43.19607" lon="6.66958">
        <ele>56.16</ele>
        <time>2016-05-04T12:09:45Z</time>
      </trkpt>
      <trkpt lat="43.19591" lon="6.66946">
        <ele>56.86</ele>
        <time>2016-05-04T12:10:06Z</time>
      </trkpt>
      <trkpt lat="43.19582" lon="6.66924">
        <ele>56.09</ele>
        <time>2016-05-04T12:10:25Z</time>
      </trkpt>
      <trkpt lat="43.19586" lon="6.66899">
        <ele>55.68</ele>
        <time>2016-05-04T12:10:44Z</time>
      </trkpt>
      <trkpt lat="43.19588" lon="6.66873">
        <ele>55.97</ele>
        <time>2016-05-04T12:11:02Z</time>
      </trkpt>
      <trkpt lat="43.19592" lon="6.66848">
        <ele>56.82</ele>
        <time>2016-05-04T12:11:44Z</time>
      </trkpt>
      <trkpt lat="43.19607" lon="6.66834">
        <ele>56.06</ele>
        <time>2016-05-04T12:12:04Z</time>
      </trkpt>
      <trkpt lat="43.19614" lon="6.66811">
        <ele>56.19</ele>
        <time>2016-05-04T12:12:36Z</time>
      </trkpt>
      <trkpt lat="43.19605" lon="6.66788">
        <ele>55.33</ele>
        <time>2016-05-04T12:12:58Z</time>
      </trkpt>
      <trkpt lat="43.19607" lon="6.66763">
        <ele>54.96</ele>
        <time>2016-05-04T12:13:23Z</time>
      </trkpt>
      <trkpt lat="43.19595" lon="6.66744">
        <ele>55.08</ele>
        <time>2016-05-04T12:13:50Z</time>
      </trkpt>
      <trkpt lat="43.19588" lon="6.66721">
        <ele>56.95</ele>
        <time>2016-05-04T12:14:13Z</time>
      </trkpt>
      <trkpt lat="43.19582" lon="6.66696">
        <ele>58.53</ele>
        <time>2016-05-04T12:14:33Z</time>
      </trkpt>
      <trkpt lat="43.19566" lon="6.66687">
        <ele>58.49</ele>
        <time>2016-05-04T12:15:01Z</time>
      </trkpt>
      <trkpt lat="43.19554" lon="6.66668">
        <ele>58.59</ele>
        <time>2016-05-04T12:15:31Z</time>
      </trkpt>
      <trkpt lat="43.19556" lon="6.66642">
        <ele>62.55</ele>
        <time>2016-05-04T12:17:48Z</time>
      </trkpt>
      <trkpt lat="43.19549" lon="6.66619">
        <ele>62.01</ele>
        <time>2016-05-04T12:18:15Z</time>
      </trkpt>
      <trkpt lat="43.1954" lon="6.66597">
        <ele>61.06</ele>
        <time>2016-05-04T12:18:51Z</time>
      </trkpt>
      <trkpt lat="43.19532" lon="6.66574">
        <ele>55.19</ele>
        <time>2016-05-04T12:20:03Z</time>
      </trkpt>
      <trkpt lat="43.19532" lon="6.66548">
        <ele>53.86</ele>
        <time>2016-05-04T12:20:33Z</time>
      </trkpt>
      <trkpt lat="43.19516" lon="6.66537">
        <ele>53.09</ele>
        <time>2016-05-04T12:21:15Z</time>
      </trkpt>
      <trkpt lat="43.19527" lon="6.66516">
        <ele>52.43</ele>
        <time>2016-05-04T12:22:06Z</time>
      </trkpt>
      <trkpt lat="43.1954" lon="6.66497">
        <ele>54.87</ele>
        <time>2016-05-04T12:22:29Z</time>
      </trkpt>
      <trkpt lat="43.19552" lon="6.6648">
        <ele>54.05</ele>
        <time>2016-05-04T12:22:56Z</time>
      </trkpt>
      <trkpt lat="43.19538" lon="6.66464">
        <ele>50.85</ele>
        <time>2016-05-04T12:23:40Z</time>
      </trkpt>
      <trkpt lat="43.19519" lon="6.66462">
        <ele>51.97</ele>
        <time>2016-05-04T12:23:56Z</time>
      </trkpt>
      <trkpt lat="43.19509" lon="6.66442">
        <ele>52.03</ele>
        <time>2016-05-04T12:24:35Z</time>
      </trkpt>
      <trkpt lat="43.19516" lon="6.66418">
        <ele>50.74</ele>
        <time>2016-05-04T12:24:53Z</time>
      </trkpt>
      <trkpt lat="43.19499" lon="6.6641">
        <ele>46.74</ele>
        <time>2016-05-04T12:26:57Z</time>
      </trkpt>
      <trkpt lat="43.19497" lon="6.66385">
        <ele>45.17</ele>
        <time>2016-05-04T12:27:35Z</time>
      </trkpt>
      <trkpt lat="43.19515" lon="6.66379">
        <ele>50.36</ele>
        <time>2016-05-04T12:28:26Z</time>
      </trkpt>
      <trkpt lat="43.19527" lon="6.6636">
        <ele>51.82</ele>
        <time>2016-05-04T12:28:45Z</time>
      </trkpt>
      <trkpt lat="43.19538" lon="6.6634">
        <ele>52.71</ele>
        <time>2016-05-04T12:29:03Z</time>
      </trkpt>
      <trkpt lat="43.19555" lon="6.66334">
        <ele>53.61</ele>
        <time>2016-05-04T12:29:19Z</time>
      </trkpt>
      <trkpt lat="43.19567" lon="6.66314">
        <ele>56.19</ele>
        <time>2016-05-04T12:29:39Z</time>
      </trkpt>
      <trkpt lat="43.19572" lon="6.6629">
        <ele>57.73</ele>
        <time>2016-05-04T12:30:00Z</time>
      </trkpt>
      <trkpt lat="43.19572" lon="6.66265">
        <ele>58.25</ele>
        <time>2016-05-04T12:30:21Z</time>
      </trkpt>
      <trkpt lat="43.19572" lon="6.66239">
        <ele>57.27</ele>
        <time>2016-05-04T12:30:40Z</time>
      </trkpt>
      <trkpt lat="43.19582" lon="6.66218">
        <ele>57.38</ele>
        <time>2016-05-04T12:31:06Z</time>
      </trkpt>
      <trkpt lat="43.19588" lon="6.66194">
        <ele>54.51</ele>
        <time>2016-05-04T12:31:33Z</time>
      </trkpt>
      <trkpt lat="43.19596" lon="6.66172">
        <ele>53.15</ele>
        <time>2016-05-04T12:32:01Z</time>
      </trkpt>
      <trkpt lat="43.19613" lon="6.66163">
        <ele>53.64</ele>
        <time>2016-05-04T12:33:07Z</time>
      </trkpt>
      <trkpt lat="43.19631" lon="6.66169">
        <ele>59.94</ele>
        <time>2016-05-04T12:34:15Z</time>
      </trkpt>
      <trkpt lat="43.19649" lon="6.66169">
        <ele>63.8</ele>
        <time>2016-05-04T12:34:56Z</time>
      </trkpt>
      <trkpt lat="43.19657" lon="6.66145">
        <ele>66.7</ele>
        <time>2016-05-04T12:35:19Z</time>
      </trkpt>
      <trkpt lat="43.19665" lon="6.66123">
        <ele>68.9</ele>
        <time>2016-05-04T12:35:33Z</time>
      </trkpt>
      <trkpt lat="43.19672" lon="6.66099">
        <ele>71.87</ele>
        <time>2016-05-04T12:35:48Z</time>
      </trkpt>
      <trkpt lat="43.19684" lon="6.66079">
        <ele>74.61</ele>
        <time>2016-05-04T12:36:19Z</time>
      </trkpt>
      <trkpt lat="43.19696" lon="6.66061">
        <ele>75.2</ele>
        <time>2016-05-04T12:36:35Z</time>
      </trkpt>
      <trkpt lat="43.197" lon="6.66036">
        <ele>74.87</ele>
        <time>2016-05-04T12:36:51Z</time>
      </trkpt>
      <trkpt lat="43.19701" lon="6.66011">
        <ele>74.79</ele>
        <time>2016-05-04T12:37:08Z</time>
      </trkpt>
      <trkpt lat="43.19702" lon="6.65986">
        <ele>74.5</ele>
        <time>2016-05-04T12:37:25Z</time>
      </trkpt>
      <trkpt lat="43.19697" lon="6.6596">
        <ele>73.44</ele>
        <time>2016-05-04T12:37:46Z</time>
      </trkpt>
      <trkpt lat="43.19685" lon="6.65942">
        <ele>73.66</ele>
        <time>2016-05-04T12:38:04Z</time>
      </trkpt>
      <trkpt lat="43.19668" lon="6.65931">
        <ele>76.37</ele>
        <time>2016-05-04T12:42:37Z</time>
      </trkpt>
      <trkpt lat="43.19655" lon="6.65913">
        <ele>74.21</ele>
        <time>2016-05-04T12:43:01Z</time>
      </trkpt>
      <trkpt lat="43.1964" lon="6.65898">
        <ele>72.98</ele>
        <time>2016-05-04T12:43:20Z</time>
      </trkpt>
      <trkpt lat="43.19628" lon="6.65879">
        <ele>72.35</ele>
        <time>2016-05-04T12:43:41Z</time>
      </trkpt>
      <trkpt lat="43.19617" lon="6.65858">
        <ele>69.91</ele>
        <time>2016-05-04T12:43:58Z</time>
      </trkpt>
      <trkpt lat="43.196" lon="6.65851">
        <ele>67.83</ele>
        <time>2016-05-04T12:44:24Z</time>
      </trkpt>
      <trkpt lat="43.19581" lon="6.65856">
        <ele>65.71</ele>
        <time>2016-05-04T12:44:50Z</time>
      </trkpt>
      <trkpt lat="43.19567" lon="6.65842">
        <ele>63.79</ele>
        <time>2016-05-04T12:45:17Z</time>
      </trkpt>
      <trkpt lat="43.19568" lon="6.65817">
        <ele>61.66</ele>
        <time>2016-05-04T12:45:43Z</time>
      </trkpt>
      <trkpt lat="43.1957" lon="6.65792">
        <ele>60.68</ele>
        <time>2016-05-04T12:46:17Z</time>
      </trkpt>
      <trkpt lat="43.19563" lon="6.65768">
        <ele>62.26</ele>
        <time>2016-05-04T12:46:45Z</time>
      </trkpt>
      <trkpt lat="43.19563" lon="6.65743">
        <ele>62.66</ele>
        <time>2016-05-04T12:47:14Z</time>
      </trkpt>
      <trkpt lat="43.19559" lon="6.65719">
        <ele>65.02</ele>
        <time>2016-05-04T12:47:40Z</time>
      </trkpt>
      <trkpt lat="43.19551" lon="6.65695">
        <ele>67.35</ele>
        <time>2016-05-04T12:48:07Z</time>
      </trkpt>
      <trkpt lat="43.19535" lon="6.65682">
        <ele>68.79</ele>
        <time>2016-05-04T12:48:23Z</time>
      </trkpt>
      <trkpt lat="43.19521" lon="6.65665">
        <ele>70.26</ele>
        <time>2016-05-04T12:48:43Z</time>
      </trkpt>
      <trkpt lat="43.19505" lon="6.65653">
        <ele>70.01</ele>
        <time>2016-05-04T12:49:04Z</time>
      </trkpt>
      <trkpt lat="43.19488" lon="6.65642">
        <ele>69.3</ele>
        <time>2016-05-04T12:49:27Z</time>
      </trkpt>
      <trkpt lat="43.19471" lon="6.65636">
        <ele>64.97</ele>
        <time>2016-05-04T12:50:28Z</time>
      </trkpt>
      <trkpt lat="43.19465" lon="6.65613">
        <ele>63.26</ele>
        <time>2016-05-04T12:50:49Z</time>
      </trkpt>
      <trkpt lat="43.19458" lon="6.6559">
        <ele>60.63</ele>
        <time>2016-05-04T12:51:09Z</time>
      </trkpt>
      <trkpt lat="43.19446" lon="6.65571">
        <ele>58.01</ele>
        <time>2016-05-04T12:51:29Z</time>
      </trkpt>
      <trkpt lat="43.19431" lon="6.65555">
        <ele>56.61</ele>
        <time>2016-05-04T12:51:50Z</time>
      </trkpt>
      <trkpt lat="43.19424" lon="6.65531">
        <ele>54.67</ele>
        <time>2016-05-04T12:52:07Z</time>
      </trkpt>
      <trkpt lat="43.19409" lon="6.65516">
        <ele>52.77</ele>
        <time>2016-05-04T12:52:28Z</time>
      </trkpt>
      <trkpt lat="43.19392" lon="6.65509">
        <ele>50.66</ele>
        <time>2016-05-04T12:52:49Z</time>
      </trkpt>
      <trkpt lat="43.19375" lon="6.65499">
        <ele>50.02</ele>
        <time>2016-05-04T12:53:11Z</time>
      </trkpt>
      <trkpt lat="43.19365" lon="6.65478">
        <ele>49.27</ele>
        <time>2016-05-04T12:53:27Z</time>
      </trkpt>
      <trkpt lat="43.19357" lon="6.65455">
        <ele>49.7</ele>
        <time>2016-05-04T12:53:55Z</time>
      </trkpt>
      <trkpt lat="43.19341" lon="6.65442">
        <ele>51.06</ele>
        <time>2016-05-04T12:54:22Z</time>
      </trkpt>
      <trkpt lat="43.19335" lon="6.65419">
        <ele>52.02</ele>
        <time>2016-05-04T12:55:03Z</time>
      </trkpt>
      <trkpt lat="43.19325" lon="6.65398">
        <ele>52.18</ele>
        <time>2016-05-04T12:55:20Z</time>
      </trkpt>
      <trkpt lat="43.19316" lon="6.65375">
        <ele>52.08</ele>
        <time>2016-05-04T12:55:39Z</time>
      </trkpt>
      <trkpt lat="43.19304" lon="6.65356">
        <ele>52.43</ele>
        <time>2016-05-04T12:55:53Z</time>
      </trkpt>
      <trkpt lat="43.19291" lon="6.65338">
        <ele>52.04</ele>
        <time>2016-05-04T12:56:10Z</time>
      </trkpt>
      <trkpt lat="43.19277" lon="6.6532">
        <ele>52.34</ele>
        <time>2016-05-04T12:56:28Z</time>
      </trkpt>
      <trkpt lat="43.19269" lon="6.65296">
        <ele>52.14</ele>
        <time>2016-05-04T12:56:48Z</time>
      </trkpt>
      <trkpt lat="43.19261" lon="6.65274">
        <ele>50.79</ele>
        <time>2016-05-04T12:57:06Z</time>
      </trkpt>
      <trkpt lat="43.19244" lon="6.65262">
        <ele>50.06</ele>
        <time>2016-05-04T12:57:23Z</time>
      </trkpt>
      <trkpt lat="43.19234" lon="6.65242">
        <ele>50.06</ele>
        <time>2016-05-04T12:57:41Z</time>
      </trkpt>
      <trkpt lat="43.19222" lon="6.65223">
        <ele>50.21</ele>
        <time>2016-05-04T12:58:55Z</time>
      </trkpt>
      <trkpt lat="43.19211" lon="6.65203">
        <ele>49.9</ele>
        <time>2016-05-04T12:59:38Z</time>
      </trkpt>
      <trkpt lat="43.19202" lon="6.65225">
        <ele>49.87</ele>
        <time>2016-05-04T13:00:05Z</time>
      </trkpt>
      <trkpt lat="43.19184" lon="6.6523">
        <ele>50.88</ele>
        <time>2016-05-04T13:00:46Z</time>
      </trkpt>
      <trkpt lat="43.19167" lon="6.65222">
        <ele>51.35</ele>
        <time>2016-05-04T13:03:07Z</time>
      </trkpt>
      <trkpt lat="43.19157" lon="6.65201">
        <ele>51.59</ele>
        <time>2016-05-04T13:03:38Z</time>
      </trkpt>
      <trkpt lat="43.19168" lon="6.65181">
        <ele>53.67</ele>
        <time>2016-05-04T13:04:28Z</time>
      </trkpt>
      <trkpt lat="43.1918" lon="6.65161">
        <ele>55.21</ele>
        <time>2016-05-04T13:04:43Z</time>
      </trkpt>
      <trkpt lat="43.19193" lon="6.65143">
        <ele>55.91</ele>
        <time>2016-05-04T13:05:00Z</time>
      </trkpt>
      <trkpt lat="43.19207" lon="6.65127">
        <ele>55.34</ele>
        <time>2016-05-04T13:05:20Z</time>
      </trkpt>
      <trkpt lat="43.19214" lon="6.65102">
        <ele>56.22</ele>
        <time>2016-05-04T13:05:39Z</time>
      </trkpt>
      <trkpt lat="43.19211" lon="6.65078">
        <ele>57.18</ele>
        <time>2016-05-04T13:06:01Z</time>
      </trkpt>
      <trkpt lat="43.1921" lon="6.65053">
        <ele>57.34</ele>
        <time>2016-05-04T13:06:09Z</time>
      </trkpt>
      <trkpt lat="43.19227" lon="6.65045">
        <ele>59.23</ele>
        <time>2016-05-04T13:06:26Z</time>
      </trkpt>
      <trkpt lat="43.19242" lon="6.6503">
        <ele>61.94</ele>
        <time>2016-05-04T13:06:49Z</time>
      </trkpt>
      <trkpt lat="43.19259" lon="6.6502">
        <ele>67.33</ele>
        <time>2016-05-04T13:07:25Z</time>
      </trkpt>
      <trkpt lat="43.19272" lon="6.65002">
        <ele>69.91</ele>
        <time>2016-05-04T13:07:52Z</time>
      </trkpt>
      <trkpt lat="43.19284" lon="6.64984">
        <ele>76.82</ele>
        <time>2016-05-04T13:08:25Z</time>
      </trkpt>
      <trkpt lat="43.19299" lon="6.64967">
        <ele>81.12</ele>
        <time>2016-05-04T13:08:52Z</time>
      </trkpt>
      <trkpt lat="43.19316" lon="6.6496">
        <ele>84.7</ele>
        <time>2016-05-04T13:09:39Z</time>
      </trkpt>
      <trkpt lat="43.19326" lon="6.64981">
        <ele>87.7</ele>
        <time>2016-05-04T13:10:04Z</time>
      </trkpt>
      <trkpt lat="43.19334" lon="6.65004">
        <ele>90.4</ele>
        <time>2016-05-04T13:10:24Z</time>
      </trkpt>
      <trkpt lat="43.19349" lon="6.64989">
        <ele>91.88</ele>
        <time>2016-05-04T13:11:03Z</time>
      </trkpt>
      <trkpt lat="43.19362" lon="6.64969">
        <ele>92.52</ele>
        <time>2016-05-04T13:11:21Z</time>
      </trkpt>
      <trkpt lat="43.19372" lon="6.64947">
        <ele>93.54</ele>
        <time>2016-05-04T13:11:43Z</time>
      </trkpt>
      <trkpt lat="43.19382" lon="6.64927">
        <ele>94.34</ele>
        <time>2016-05-04T13:12:01Z</time>
      </trkpt>
      <trkpt lat="43.19389" lon="6.64903">
        <ele>97.76</ele>
        <time>2016-05-04T13:12:35Z</time>
      </trkpt>
      <trkpt lat="43.194" lon="6.64883">
        <ele>101.34</ele>
        <time>2016-05-04T13:13:00Z</time>
      </trkpt>
      <trkpt lat="43.19416" lon="6.64869">
        <ele>102.35</ele>
        <time>2016-05-04T13:13:33Z</time>
      </trkpt>
      <trkpt lat="43.19431" lon="6.64854">
        <ele>104.36</ele>
        <time>2016-05-04T13:13:52Z</time>
      </trkpt>
      <trkpt lat="43.19447" lon="6.64843">
        <ele>106.72</ele>
        <time>2016-05-04T13:14:10Z</time>
      </trkpt>
      <trkpt lat="43.19463" lon="6.64828">
        <ele>107.95</ele>
        <time>2016-05-04T13:14:25Z</time>
      </trkpt>
      <trkpt lat="43.1948" lon="6.64818">
        <ele>108.49</ele>
        <time>2016-05-04T13:14:51Z</time>
      </trkpt>
      <trkpt lat="43.19497" lon="6.64811">
        <ele>109.2</ele>
        <time>2016-05-04T13:15:07Z</time>
      </trkpt>
      <trkpt lat="43.19514" lon="6.64799">
        <ele>110.58</ele>
        <time>2016-05-04T13:15:22Z</time>
      </trkpt>
      <trkpt lat="43.19529" lon="6.64785">
        <ele>112.29</ele>
        <time>2016-05-04T13:15:41Z</time>
      </trkpt>
      <trkpt lat="43.19548" lon="6.64783">
        <ele>111.4</ele>
        <time>2016-05-04T13:16:03Z</time>
      </trkpt>
      <trkpt lat="43.19566" lon="6.6479">
        <ele>109.75</ele>
        <time>2016-05-04T13:16:20Z</time>
      </trkpt>
      <trkpt lat="43.19583" lon="6.648">
        <ele>108.73</ele>
        <time>2016-05-04T13:16:33Z</time>
      </trkpt>
      <trkpt lat="43.19597" lon="6.64782">
        <ele>108.8</ele>
        <time>2016-05-04T13:17:03Z</time>
      </trkpt>
      <trkpt lat="43.19612" lon="6.64767">
        <ele>110.35</ele>
        <time>2016-05-04T13:17:15Z</time>
      </trkpt>
      <trkpt lat="43.19627" lon="6.64751">
        <ele>112.71</ele>
        <time>2016-05-04T13:17:30Z</time>
      </trkpt>
      <trkpt lat="43.19646" lon="6.64752">
        <ele>118.53</ele>
        <time>2016-05-04T13:20:51Z</time>
      </trkpt>
      <trkpt lat="43.19664" lon="6.64757">
        <ele>117.88</ele>
        <time>2016-05-04T13:21:08Z</time>
      </trkpt>
      <trkpt lat="43.19682" lon="6.64764">
        <ele>119.2</ele>
        <time>2016-05-04T13:21:29Z</time>
      </trkpt>
      <trkpt lat="43.19699" lon="6.64771">
        <ele>120.46</ele>
        <time>2016-05-04T13:21:44Z</time>
      </trkpt>
      <trkpt lat="43.19718" lon="6.64776">
        <ele>122.11</ele>
        <time>2016-05-04T13:22:02Z</time>
      </trkpt>
      <trkpt lat="43.19736" lon="6.64781">
        <ele>123.71</ele>
        <time>2016-05-04T13:22:16Z</time>
      </trkpt>
      <trkpt lat="43.19753" lon="6.64793">
        <ele>125.52</ele>
        <time>2016-05-04T13:22:33Z</time>
      </trkpt>
      <trkpt lat="43.19767" lon="6.64809">
        <ele>126.22</ele>
        <time>2016-05-04T13:22:49Z</time>
      </trkpt>
      <trkpt lat="43.19779" lon="6.64829">
        <ele>126.31</ele>
        <time>2016-05-04T13:23:04Z</time>
      </trkpt>
      <trkpt lat="43.19792" lon="6.64849">
        <ele>127.6</ele>
        <time>2016-05-04T13:23:21Z</time>
      </trkpt>
      <trkpt lat="43.19799" lon="6.64872">
        <ele>129.1</ele>
        <time>2016-05-04T13:23:36Z</time>
      </trkpt>
      <trkpt lat="43.19808" lon="6.64894">
        <ele>130.6</ele>
        <time>2016-05-04T13:23:51Z</time>
      </trkpt>
      <trkpt lat="43.19808" lon="6.6492">
        <ele>132.77</ele>
        <time>2016-05-04T13:24:08Z</time>
      </trkpt>
      <trkpt lat="43.19812" lon="6.64944">
        <ele>134.07</ele>
        <time>2016-05-04T13:24:27Z</time>
      </trkpt>
      <trkpt lat="43.19821" lon="6.64967">
        <ele>134.75</ele>
        <time>2016-05-04T13:24:46Z</time>
      </trkpt>
      <trkpt lat="43.19826" lon="6.64991">
        <ele>137.09</ele>
        <time>2016-05-04T13:25:02Z</time>
      </trkpt>
      <trkpt lat="43.19838" lon="6.6501">
        <ele>139.32</ele>
        <time>2016-05-04T13:25:17Z</time>
      </trkpt>
      <trkpt lat="43.19845" lon="6.65033">
        <ele>141.65</ele>
        <time>2016-05-04T13:25:35Z</time>
      </trkpt>
      <trkpt lat="43.19855" lon="6.65054">
        <ele>143.39</ele>
        <time>2016-05-04T13:25:53Z</time>
      </trkpt>
      <trkpt lat="43.19869" lon="6.65069">
        <ele>145.73</ele>
        <time>2016-05-04T13:26:10Z</time>
      </trkpt>
      <trkpt lat="43.19885" lon="6.65084">
        <ele>147.76</ele>
        <time>2016-05-04T13:26:26Z</time>
      </trkpt>
      <trkpt lat="43.19899" lon="6.651">
        <ele>149.57</ele>
        <time>2016-05-04T13:26:41Z</time>
      </trkpt>
      <trkpt lat="43.19915" lon="6.65112">
        <ele>151.77</ele>
        <time>2016-05-04T13:26:55Z</time>
      </trkpt>
      <trkpt lat="43.19933" lon="6.6512">
        <ele>154.45</ele>
        <time>2016-05-04T13:27:10Z</time>
      </trkpt>
      <trkpt lat="43.1995" lon="6.65129">
        <ele>156.51</ele>
        <time>2016-05-04T13:27:23Z</time>
      </trkpt>
      <trkpt lat="43.19967" lon="6.65139">
        <ele>157.77</ele>
        <time>2016-05-04T13:27:37Z</time>
      </trkpt>
      <trkpt lat="43.19982" lon="6.65153">
        <ele>158.59</ele>
        <time>2016-05-04T13:27:51Z</time>
      </trkpt>
      <trkpt lat="43.19987" lon="6.65179">
        <ele>158.94</ele>
        <time>2016-05-04T13:28:06Z</time>
      </trkpt>
      <trkpt lat="43.19984" lon="6.65205">
        <ele>160.15</ele>
        <time>2016-05-04T13:28:21Z</time>
      </trkpt>
      <trkpt lat="43.19978" lon="6.65228">
        <ele>161.72</ele>
        <time>2016-05-04T13:28:36Z</time>
      </trkpt>
      <trkpt lat="43.19969" lon="6.65252">
        <ele>163.21</ele>
        <time>2016-05-04T13:28:50Z</time>
      </trkpt>
      <trkpt lat="43.19962" lon="6.65276">
        <ele>164.18</ele>
        <time>2016-05-04T13:29:11Z</time>
      </trkpt>
      <trkpt lat="43.19965" lon="6.65301">
        <ele>165.27</ele>
        <time>2016-05-04T13:29:26Z</time>
      </trkpt>
      <trkpt lat="43.1997" lon="6.65325">
        <ele>166.37</ele>
        <time>2016-05-04T13:29:41Z</time>
      </trkpt>
      <trkpt lat="43.19976" lon="6.65349">
        <ele>167.81</ele>
        <time>2016-05-04T13:29:55Z</time>
      </trkpt>
      <trkpt lat="43.19978" lon="6.65374">
        <ele>169.23</ele>
        <time>2016-05-04T13:30:11Z</time>
      </trkpt>
      <trkpt lat="43.19962" lon="6.65386">
        <ele>171.55</ele>
        <time>2016-05-04T13:30:27Z</time>
      </trkpt>
      <trkpt lat="43.19944" lon="6.65389">
        <ele>174.53</ele>
        <time>2016-05-04T13:30:42Z</time>
      </trkpt>
      <trkpt lat="43.19945" lon="6.65414">
        <ele>177.18</ele>
        <time>2016-05-04T13:31:14Z</time>
      </trkpt>
      <trkpt lat="43.19959" lon="6.6543">
        <ele>177.75</ele>
        <time>2016-05-04T13:31:29Z</time>
      </trkpt>
      <trkpt lat="43.19971" lon="6.6545">
        <ele>177.41</ele>
        <time>2016-05-04T13:31:45Z</time>
      </trkpt>
      <trkpt lat="43.19982" lon="6.65472">
        <ele>175.81</ele>
        <time>2016-05-04T13:32:02Z</time>
      </trkpt>
      <trkpt lat="43.1999" lon="6.65496">
        <ele>174.33</ele>
        <time>2016-05-04T13:32:19Z</time>
      </trkpt>
      <trkpt lat="43.20004" lon="6.65512">
        <ele>172.85</ele>
        <time>2016-05-04T13:32:34Z</time>
      </trkpt>
      <trkpt lat="43.20022" lon="6.65518">
        <ele>173.85</ele>
        <time>2016-05-04T13:32:49Z</time>
      </trkpt>
      <trkpt lat="43.2004" lon="6.6552">
        <ele>172.3</ele>
        <time>2016-05-04T13:33:06Z</time>
      </trkpt>
      <trkpt lat="43.20057" lon="6.65529">
        <ele>172.07</ele>
        <time>2016-05-04T13:33:16Z</time>
      </trkpt>
      <trkpt lat="43.20069" lon="6.65549">
        <ele>170.71</ele>
        <time>2016-05-04T13:33:30Z</time>
      </trkpt>
      <trkpt lat="43.2008" lon="6.65568">
        <ele>168.36</ele>
        <time>2016-05-04T13:33:46Z</time>
      </trkpt>
      <trkpt lat="43.20091" lon="6.65588">
        <ele>165.09</ele>
        <time>2016-05-04T13:34:01Z</time>
      </trkpt>
      <trkpt lat="43.20102" lon="6.65608">
        <ele>163.45</ele>
        <time>2016-05-04T13:34:16Z</time>
      </trkpt>
      <trkpt lat="43.20119" lon="6.65619">
        <ele>162.91</ele>
        <time>2016-05-04T13:34:33Z</time>
      </trkpt>
      <trkpt lat="43.20137" lon="6.65617">
        <ele>162.41</ele>
        <time>2016-05-04T13:34:47Z</time>
      </trkpt>
      <trkpt lat="43.20155" lon="6.65626">
        <ele>159.78</ele>
        <time>2016-05-04T13:35:05Z</time>
      </trkpt>
      <trkpt lat="43.20169" lon="6.65642">
        <ele>156.33</ele>
        <time>2016-05-04T13:35:34Z</time>
      </trkpt>
      <trkpt lat="43.20187" lon="6.65647">
        <ele>156.99</ele>
        <time>2016-05-04T13:35:58Z</time>
      </trkpt>
      <trkpt lat="43.20205" lon="6.65652">
        <ele>155.44</ele>
        <time>2016-05-04T13:36:26Z</time>
      </trkpt>
      <trkpt lat="43.20222" lon="6.65662">
        <ele>153.46</ele>
        <time>2016-05-04T13:36:42Z</time>
      </trkpt>
      <trkpt lat="43.20237" lon="6.65677">
        <ele>152.58</ele>
        <time>2016-05-04T13:36:57Z</time>
      </trkpt>
      <trkpt lat="43.20249" lon="6.65696">
        <ele>151.42</ele>
        <time>2016-05-04T13:37:13Z</time>
      </trkpt>
      <trkpt lat="43.20261" lon="6.65716">
        <ele>150.74</ele>
        <time>2016-05-04T13:37:29Z</time>
      </trkpt>
      <trkpt lat="43.20273" lon="6.65737">
        <ele>149.19</ele>
        <time>2016-05-04T13:37:46Z</time>
      </trkpt>
      <trkpt lat="43.20283" lon="6.65757">
        <ele>147.8</ele>
        <time>2016-05-04T13:38:09Z</time>
      </trkpt>
      <trkpt lat="43.20292" lon="6.6578">
        <ele>147.5</ele>
        <time>2016-05-04T13:38:25Z</time>
      </trkpt>
      <trkpt lat="43.203" lon="6.65802">
        <ele>146.02</ele>
        <time>2016-05-04T13:38:44Z</time>
      </trkpt>
      <trkpt lat="43.2031" lon="6.65824">
        <ele>144.52</ele>
        <time>2016-05-04T13:39:02Z</time>
      </trkpt>
      <trkpt lat="43.20318" lon="6.65846">
        <ele>142.66</ele>
        <time>2016-05-04T13:39:18Z</time>
      </trkpt>
      <trkpt lat="43.2033" lon="6.65866">
        <ele>139.78</ele>
        <time>2016-05-04T13:39:45Z</time>
      </trkpt>
      <trkpt lat="43.20345" lon="6.65881">
        <ele>137.97</ele>
        <time>2016-05-04T13:40:06Z</time>
      </trkpt>
      <trkpt lat="43.20362" lon="6.65894">
        <ele>135.89</ele>
        <time>2016-05-04T13:40:20Z</time>
      </trkpt>
      <trkpt lat="43.20378" lon="6.65904">
        <ele>134.9</ele>
        <time>2016-05-04T13:40:36Z</time>
      </trkpt>
      <trkpt lat="43.20396" lon="6.65908">
        <ele>134.15</ele>
        <time>2016-05-04T13:40:52Z</time>
      </trkpt>
      <trkpt lat="43.20412" lon="6.65895">
        <ele>130.9</ele>
        <time>2016-05-04T13:42:58Z</time>
      </trkpt>
      <trkpt lat="43.20416" lon="6.65869">
        <ele>131.8</ele>
        <time>2016-05-04T13:43:12Z</time>
      </trkpt>
      <trkpt lat="43.20428" lon="6.65849">
        <ele>131.44</ele>
        <time>2016-05-04T13:43:31Z</time>
      </trkpt>
      <trkpt lat="43.20447" lon="6.65848">
        <ele>130.9</ele>
        <time>2016-05-04T13:43:49Z</time>
      </trkpt>
      <trkpt lat="43.2045" lon="6.65873">
        <ele>129.31</ele>
        <time>2016-05-04T13:44:07Z</time>
      </trkpt>
      <trkpt lat="43.20467" lon="6.65883">
        <ele>127.93</ele>
        <time>2016-05-04T13:44:21Z</time>
      </trkpt>
      <trkpt lat="43.20472" lon="6.65858">
        <ele>123.28</ele>
        <time>2016-05-04T13:47:32Z</time>
      </trkpt>
      <trkpt lat="43.20482" lon="6.65837">
        <ele>123.39</ele>
        <time>2016-05-04T13:47:45Z</time>
      </trkpt>
      <trkpt lat="43.20491" lon="6.65815">
        <ele>123.63</ele>
        <time>2016-05-04T13:48:01Z</time>
      </trkpt>
      <trkpt lat="43.20476" lon="6.65798">
        <ele>122.44</ele>
        <time>2016-05-04T13:48:18Z</time>
      </trkpt>
      <trkpt lat="43.20461" lon="6.65785">
        <ele>120.67</ele>
        <time>2016-05-04T13:48:33Z</time>
      </trkpt>
      <trkpt lat="43.20453" lon="6.65761">
        <ele>119.25</ele>
        <time>2016-05-04T13:48:47Z</time>
      </trkpt>
      <trkpt lat="43.20442" lon="6.65739">
        <ele>119.21</ele>
        <time>2016-05-04T13:49:03Z</time>
      </trkpt>
      <trkpt lat="43.20432" lon="6.65717">
        <ele>119.7</ele>
        <time>2016-05-04T13:49:16Z</time>
      </trkpt>
      <trkpt lat="43.2044" lon="6.65693">
        <ele>118.71</ele>
        <time>2016-05-04T13:49:29Z</time>
      </trkpt>
      <trkpt lat="43.20451" lon="6.65672">
        <ele>117.21</ele>
        <time>2016-05-04T13:49:43Z</time>
      </trkpt>
      <trkpt lat="43.20461" lon="6.65651">
        <ele>116.09</ele>
        <time>2016-05-04T13:49:58Z</time>
      </trkpt>
      <trkpt lat="43.20474" lon="6.65632">
        <ele>114.12</ele>
        <time>2016-05-04T13:50:13Z</time>
      </trkpt>
      <trkpt lat="43.20482" lon="6.6561">
        <ele>112.24</ele>
        <time>2016-05-04T13:50:29Z</time>
      </trkpt>
      <trkpt lat="43.20488" lon="6.65586">
        <ele>110.98</ele>
        <time>2016-05-04T13:50:42Z</time>
      </trkpt>
      <trkpt lat="43.20492" lon="6.65562">
        <ele>109.55</ele>
        <time>2016-05-04T13:51:00Z</time>
      </trkpt>
      <trkpt lat="43.20504" lon="6.65543">
        <ele>108.86</ele>
        <time>2016-05-04T13:51:14Z</time>
      </trkpt>
      <trkpt lat="43.2051" lon="6.65518">
        <ele>107.83</ele>
        <time>2016-05-04T13:51:30Z</time>
      </trkpt>
      <trkpt lat="43.20509" lon="6.65492">
        <ele>104.91</ele>
        <time>2016-05-04T13:51:46Z</time>
      </trkpt>
      <trkpt lat="43.20512" lon="6.65468">
        <ele>103.5</ele>
        <time>2016-05-04T13:52:00Z</time>
      </trkpt>
      <trkpt lat="43.20523" lon="6.65448">
        <ele>102.4</ele>
        <time>2016-05-04T13:52:14Z</time>
      </trkpt>
      <trkpt lat="43.20532" lon="6.65427">
        <ele>100.58</ele>
        <time>2016-05-04T13:52:28Z</time>
      </trkpt>
      <trkpt lat="43.2054" lon="6.65403">
        <ele>99.71</ele>
        <time>2016-05-04T13:52:42Z</time>
      </trkpt>
      <trkpt lat="43.20549" lon="6.65382">
        <ele>98.97</ele>
        <time>2016-05-04T13:52:59Z</time>
      </trkpt>
      <trkpt lat="43.20553" lon="6.65357">
        <ele>97.63</ele>
        <time>2016-05-04T13:53:13Z</time>
      </trkpt>
      <trkpt lat="43.20552" lon="6.65331">
        <ele>96.5</ele>
        <time>2016-05-04T13:53:27Z</time>
      </trkpt>
      <trkpt lat="43.20557" lon="6.65307">
        <ele>95.36</ele>
        <time>2016-05-04T13:53:42Z</time>
      </trkpt>
      <trkpt lat="43.20567" lon="6.65286">
        <ele>94.41</ele>
        <time>2016-05-04T13:53:57Z</time>
      </trkpt>
      <trkpt lat="43.20571" lon="6.65261">
        <ele>94.46</ele>
        <time>2016-05-04T13:54:12Z</time>
      </trkpt>
      <trkpt lat="43.20577" lon="6.65236">
        <ele>92.68</ele>
        <time>2016-05-04T13:54:33Z</time>
      </trkpt>
      <trkpt lat="43.20593" lon="6.65222">
        <ele>90.35</ele>
        <time>2016-05-04T13:54:47Z</time>
      </trkpt>
      <trkpt lat="43.20611" lon="6.65217">
        <ele>86.69</ele>
        <time>2016-05-04T13:55:04Z</time>
      </trkpt>
      <trkpt lat="43.20624" lon="6.65199">
        <ele>81.7</ele>
        <time>2016-05-04T13:55:49Z</time>
      </trkpt>
      <trkpt lat="43.20636" lon="6.65217">
        <ele>76.65</ele>
        <time>2016-05-04T13:56:19Z</time>
      </trkpt>
      <trkpt lat="43.20643" lon="6.6524">
        <ele>72.45</ele>
        <time>2016-05-04T13:57:02Z</time>
      </trkpt>
      <trkpt lat="43.2065" lon="6.65264">
        <ele>70.39</ele>
        <time>2016-05-04T13:57:28Z</time>
      </trkpt>
      <trkpt lat="43.20657" lon="6.65288">
        <ele>67.94</ele>
        <time>2016-05-04T13:57:53Z</time>
      </trkpt>
      <trkpt lat="43.20664" lon="6.65311">
        <ele>65.36</ele>
        <time>2016-05-04T13:58:11Z</time>
      </trkpt>
      <trkpt lat="43.20675" lon="6.65331">
        <ele>64.09</ele>
        <time>2016-05-04T13:58:43Z</time>
      </trkpt>
      <trkpt lat="43.2068" lon="6.65356">
        <ele>63.15</ele>
        <time>2016-05-04T13:58:57Z</time>
      </trkpt>
      <trkpt lat="43.20685" lon="6.6538">
        <ele>61.34</ele>
        <time>2016-05-04T13:59:11Z</time>
      </trkpt>
      <trkpt lat="43.20691" lon="6.65405">
        <ele>59.33</ele>
        <time>2016-05-04T13:59:25Z</time>
      </trkpt>
      <trkpt lat="43.20698" lon="6.6543">
        <ele>57.3</ele>
        <time>2016-05-04T13:59:41Z</time>
      </trkpt>
      <trkpt lat="43.20705" lon="6.65454">
        <ele>56.07</ele>
        <time>2016-05-04T13:59:57Z</time>
      </trkpt>
      <trkpt lat="43.20714" lon="6.65476">
        <ele>55.2</ele>
        <time>2016-05-04T14:00:10Z</time>
      </trkpt>
      <trkpt lat="43.20721" lon="6.65499">
        <ele>54.55</ele>
        <time>2016-05-04T14:00:24Z</time>
      </trkpt>
      <trkpt lat="43.20735" lon="6.65516">
        <ele>54.56</ele>
        <time>2016-05-04T14:00:37Z</time>
      </trkpt>
      <trkpt lat="43.20753" lon="6.65512">
        <ele>55.84</ele>
        <time>2016-05-04T14:00:49Z</time>
      </trkpt>
      <trkpt lat="43.2077" lon="6.65501">
        <ele>57.23</ele>
        <time>2016-05-04T14:01:03Z</time>
      </trkpt>
      <trkpt lat="43.20787" lon="6.65492">
        <ele>58.21</ele>
        <time>2016-05-04T14:01:19Z</time>
      </trkpt>
      <trkpt lat="43.20805" lon="6.65485">
        <ele>58.9</ele>
        <time>2016-05-04T14:01:34Z</time>
      </trkpt>
      <trkpt lat="43.20822" lon="6.65475">
        <ele>59.71</ele>
        <time>2016-05-04T14:01:49Z</time>
      </trkpt>
      <trkpt lat="43.20838" lon="6.65464">
        <ele>58.36</ele>
        <time>2016-05-04T14:02:03Z</time>
      </trkpt>
      <trkpt lat="43.20855" lon="6.65456">
        <ele>58.21</ele>
        <time>2016-05-04T14:02:17Z</time>
      </trkpt>
      <trkpt lat="43.20873" lon="6.65449">
        <ele>58.22</ele>
        <time>2016-05-04T14:02:30Z</time>
      </trkpt>
      <trkpt lat="43.20887" lon="6.65465">
        <ele>56.8</ele>
        <time>2016-05-04T14:03:04Z</time>
      </trkpt>
      <trkpt lat="43.20891" lon="6.6549">
        <ele>56.8</ele>
        <time>2016-05-04T14:03:19Z</time>
      </trkpt>
      <trkpt lat="43.20896" lon="6.65514">
        <ele>55.94</ele>
        <time>2016-05-04T14:03:34Z</time>
      </trkpt>
      <trkpt lat="43.20901" lon="6.65538">
        <ele>55.36</ele>
        <time>2016-05-04T14:03:46Z</time>
      </trkpt>
      <trkpt lat="43.20905" lon="6.65563">
        <ele>54.88</ele>
        <time>2016-05-04T14:04:00Z</time>
      </trkpt>
      <trkpt lat="43.20908" lon="6.65588">
        <ele>54.3</ele>
        <time>2016-05-04T14:04:13Z</time>
      </trkpt>
      <trkpt lat="43.20913" lon="6.65612">
        <ele>54.3</ele>
        <time>2016-05-04T14:04:26Z</time>
      </trkpt>
      <trkpt lat="43.20917" lon="6.65638">
        <ele>53.38</ele>
        <time>2016-05-04T14:04:42Z</time>
      </trkpt>
      <trkpt lat="43.2092" lon="6.65663">
        <ele>52.52</ele>
        <time>2016-05-04T14:04:56Z</time>
      </trkpt>
      <trkpt lat="43.20924" lon="6.65689">
        <ele>52.59</ele>
        <time>2016-05-04T14:05:11Z</time>
      </trkpt>
      <trkpt lat="43.20925" lon="6.65714">
        <ele>51.79</ele>
        <time>2016-05-04T14:05:25Z</time>
      </trkpt>
      <trkpt lat="43.20929" lon="6.6574">
        <ele>51.44</ele>
        <time>2016-05-04T14:05:40Z</time>
      </trkpt>
      <trkpt lat="43.20936" lon="6.65764">
        <ele>50.26</ele>
        <time>2016-05-04T14:05:53Z</time>
      </trkpt>
      <trkpt lat="43.20954" lon="6.6577">
        <ele>49.93</ele>
        <time>2016-05-04T14:06:09Z</time>
      </trkpt>
      <trkpt lat="43.20973" lon="6.65764">
        <ele>50.16</ele>
        <time>2016-05-04T14:06:23Z</time>
      </trkpt>
      <trkpt lat="43.20991" lon="6.65758">
        <ele>51.29</ele>
        <time>2016-05-04T14:06:38Z</time>
      </trkpt>
      <trkpt lat="43.21009" lon="6.6575">
        <ele>51.8</ele>
        <time>2016-05-04T14:06:51Z</time>
      </trkpt>
      <trkpt lat="43.21028" lon="6.65743">
        <ele>52.07</ele>
        <time>2016-05-04T14:07:04Z</time>
      </trkpt>
      <trkpt lat="43.21045" lon="6.65734">
        <ele>51.78</ele>
        <time>2016-05-04T14:07:20Z</time>
      </trkpt>
      <trkpt lat="43.21063" lon="6.65727">
        <ele>51.69</ele>
        <time>2016-05-04T14:07:33Z</time>
      </trkpt>
      <trkpt lat="43.21081" lon="6.6572">
        <ele>51.27</ele>
        <time>2016-05-04T14:07:48Z</time>
      </trkpt>
      <trkpt lat="43.21099" lon="6.65716">
        <ele>51.03</ele>
        <time>2016-05-04T14:08:02Z</time>
      </trkpt>
      <trkpt lat="43.21116" lon="6.65706">
        <ele>50.54</ele>
        <time>2016-05-04T14:08:16Z</time>
      </trkpt>
      <trkpt lat="43.21134" lon="6.657">
        <ele>50.41</ele>
        <time>2016-05-04T14:08:28Z</time>
      </trkpt>
      <trkpt lat="43.21122" lon="6.65718">
        <ele>49.9</ele>
        <time>2016-05-04T14:09:12Z</time>
      </trkpt>
      <trkpt lat="43.21103" lon="6.65726">
        <ele>50.93</ele>
        <time>2016-05-04T14:09:27Z</time>
      </trkpt>
      <trkpt lat="43.21086" lon="6.65735">
        <ele>51.45</ele>
        <time>2016-05-04T14:09:41Z</time>
      </trkpt>
      <trkpt lat="43.21079" lon="6.65759">
        <ele>52</ele>
        <time>2016-05-04T14:09:56Z</time>
      </trkpt>
      <trkpt lat="43.21079" lon="6.65785">
        <ele>51.43</ele>
        <time>2016-05-04T14:10:09Z</time>
      </trkpt>
      <trkpt lat="43.2108" lon="6.6581">
        <ele>50.16</ele>
        <time>2016-05-04T14:10:24Z</time>
      </trkpt>
      <trkpt lat="43.21082" lon="6.65835">
        <ele>49</ele>
        <time>2016-05-04T14:10:38Z</time>
      </trkpt>
      <trkpt lat="43.21091" lon="6.65856">
        <ele>48.13</ele>
        <time>2016-05-04T14:10:55Z</time>
      </trkpt>
      <trkpt lat="43.21093" lon="6.65882">
        <ele>47.29</ele>
        <time>2016-05-04T14:11:10Z</time>
      </trkpt>
      <trkpt lat="43.211" lon="6.65905">
        <ele>47.02</ele>
        <time>2016-05-04T14:11:26Z</time>
      </trkpt>
      <trkpt lat="43.21104" lon="6.6593">
        <ele>46.35</ele>
        <time>2016-05-04T14:11:42Z</time>
      </trkpt>
      <trkpt lat="43.2111" lon="6.65953">
        <ele>46.48</ele>
        <time>2016-05-04T14:11:54Z</time>
      </trkpt>
      <trkpt lat="43.21113" lon="6.65978">
        <ele>46.81</ele>
        <time>2016-05-04T14:12:09Z</time>
      </trkpt>
      <trkpt lat="43.21115" lon="6.66004">
        <ele>47.78</ele>
        <time>2016-05-04T14:12:23Z</time>
      </trkpt>
      <trkpt lat="43.21113" lon="6.6603">
        <ele>47.66</ele>
        <time>2016-05-04T14:12:37Z</time>
      </trkpt>
      <trkpt lat="43.21109" lon="6.66056">
        <ele>47.4</ele>
        <time>2016-05-04T14:12:52Z</time>
      </trkpt>
      <trkpt lat="43.21106" lon="6.6608">
        <ele>47.69</ele>
        <time>2016-05-04T14:13:05Z</time>
      </trkpt>
      <trkpt lat="43.21107" lon="6.66107">
        <ele>49.05</ele>
        <time>2016-05-04T14:13:21Z</time>
      </trkpt>
      <trkpt lat="43.21109" lon="6.66133">
        <ele>50.12</ele>
        <time>2016-05-04T14:13:37Z</time>
      </trkpt>
      <trkpt lat="43.21114" lon="6.66159">
        <ele>49.95</ele>
        <time>2016-05-04T14:13:52Z</time>
      </trkpt>
      <trkpt lat="43.21113" lon="6.66184">
        <ele>49.19</ele>
        <time>2016-05-04T14:14:05Z</time>
      </trkpt>
      <trkpt lat="43.21116" lon="6.66209">
        <ele>48.29</ele>
        <time>2016-05-04T14:14:21Z</time>
      </trkpt>
      <trkpt lat="43.21119" lon="6.66235">
        <ele>47.84</ele>
        <time>2016-05-04T14:14:35Z</time>
      </trkpt>
      <trkpt lat="43.21124" lon="6.66261">
        <ele>46.71</ele>
        <time>2016-05-04T14:14:50Z</time>
      </trkpt>
      <trkpt lat="43.21129" lon="6.66284">
        <ele>46.82</ele>
        <time>2016-05-04T14:15:04Z</time>
      </trkpt>
      <trkpt lat="43.21134" lon="6.6631">
        <ele>46.64</ele>
        <time>2016-05-04T14:15:20Z</time>
      </trkpt>
      <trkpt lat="43.21134" lon="6.66335">
        <ele>46.04</ele>
        <time>2016-05-04T14:15:35Z</time>
      </trkpt>
      <trkpt lat="43.21135" lon="6.66359">
        <ele>45.47</ele>
        <time>2016-05-04T14:15:50Z</time>
      </trkpt>
      <trkpt lat="43.21135" lon="6.66385">
        <ele>44.67</ele>
        <time>2016-05-04T14:16:07Z</time>
      </trkpt>
      <trkpt lat="43.21133" lon="6.66411">
        <ele>44.65</ele>
        <time>2016-05-04T14:16:28Z</time>
      </trkpt>
      <trkpt lat="43.21135" lon="6.66436">
        <ele>43.55</ele>
        <time>2016-05-04T14:16:50Z</time>
      </trkpt>
      <trkpt lat="43.21151" lon="6.66446">
        <ele>43.24</ele>
        <time>2016-05-04T14:17:18Z</time>
      </trkpt>
      <trkpt lat="43.2117" lon="6.66442">
        <ele>41.21</ele>
        <time>2016-05-04T14:19:26Z</time>
      </trkpt>
      <trkpt lat="43.21187" lon="6.66434">
        <ele>41.84</ele>
        <time>2016-05-04T14:19:44Z</time>
      </trkpt>
      <trkpt lat="43.21204" lon="6.66423">
        <ele>42.62</ele>
        <time>2016-05-04T14:20:02Z</time>
      </trkpt>
      <trkpt lat="43.21222" lon="6.66422">
        <ele>43.81</ele>
        <time>2016-05-04T14:20:28Z</time>
      </trkpt>
      <trkpt lat="43.21237" lon="6.66407">
        <ele>41.79</ele>
        <time>2016-05-04T14:21:25Z</time>
      </trkpt>
      <trkpt lat="43.21254" lon="6.66399">
        <ele>43.45</ele>
        <time>2016-05-04T14:21:45Z</time>
      </trkpt>
      <trkpt lat="43.21274" lon="6.66398">
        <ele>44.2</ele>
        <time>2016-05-04T14:22:05Z</time>
      </trkpt>
      <trkpt lat="43.21255" lon="6.664">
        <ele>44.18</ele>
        <time>2016-05-04T15:01:44Z</time>
      </trkpt>
      <trkpt lat="43.21238" lon="6.66407">
        <ele>44.28</ele>
        <time>2016-05-04T15:02:04Z</time>
      </trkpt>
      <trkpt lat="43.2122" lon="6.66412">
        <ele>44.48</ele>
        <time>2016-05-04T15:02:27Z</time>
      </trkpt>
      <trkpt lat="43.21203" lon="6.6642">
        <ele>44.65</ele>
        <time>2016-05-04T15:02:50Z</time>
      </trkpt>
      <trkpt lat="43.21185" lon="6.66428">
        <ele>44.7</ele>
        <time>2016-05-04T15:03:09Z</time>
      </trkpt>
      <trkpt lat="43.21168" lon="6.66438">
        <ele>44.87</ele>
        <time>2016-05-04T15:03:30Z</time>
      </trkpt>
      <trkpt lat="43.21151" lon="6.66447">
        <ele>45.05</ele>
        <time>2016-05-04T15:03:52Z</time>
      </trkpt>
      <trkpt lat="43.21134" lon="6.66439">
        <ele>45.14</ele>
        <time>2016-05-04T15:04:22Z</time>
      </trkpt>
      <trkpt lat="43.21117" lon="6.6643">
        <ele>45.09</ele>
        <time>2016-05-04T15:04:52Z</time>
      </trkpt>
    </trkseg>
  </trk>
</gpx>